createdAt,value
2023-05-25T00:00:19.018Z,99655.13
2023-05-25T00:02:49.140Z,99661.28
2023-05-25T00:05:18.483Z,99656.03
2023-05-25T00:07:47.002Z,99656.31
2023-05-25T00:10:15.528Z,99658.59
2023-05-25T00:12:43.950Z,99661.69
2023-05-25T00:15:13.116Z,99666.72
2023-05-25T00:17:42.034Z,99662.59
2023-05-25T00:20:15.091Z,99666.47
2023-05-25T00:22:46.239Z,99665.13
2023-05-25T00:25:14.623Z,99667.38
2023-05-25T00:27:43.120Z,99670.47
2023-05-25T00:30:12.606Z,99659.97
2023-05-25T00:32:41.116Z,99664.69
2023-05-25T00:35:11.617Z,99661.69
2023-05-25T00:37:41.276Z,99662.28
2023-05-25T00:40:15.664Z,99669.28
2023-05-25T00:42:45.154Z,99673.47
2023-05-25T00:45:13.739Z,99677.66
2023-05-25T00:47:42.709Z,99676.88
2023-05-25T00:50:17.944Z,99675.78
2023-05-25T00:52:46.344Z,99674.16
2023-05-25T00:55:18.930Z,99667.25
2023-05-25T00:57:53.013Z,99671.47
2023-05-25T01:00:22.010Z,99669.00
2023-05-25T01:02:56.685Z,99664.88
2023-05-25T01:05:29.616Z,99668.75
2023-05-25T01:08:01.816Z,99678.22
2023-05-25T01:10:32.721Z,99671.84
2023-05-25T01:13:03.275Z,99668.81
2023-05-25T01:15:33.761Z,99677.97
2023-05-25T01:18:02.152Z,99685.47
2023-05-25T01:20:32.036Z,99685.78
2023-05-25T01:23:11.893Z,99678.88
2023-05-25T01:25:46.935Z,99679.47
2023-05-25T01:28:19.629Z,99677.53
2023-05-25T01:30:50.817Z,99675.38
2023-05-25T01:33:21.252Z,99674.53
2023-05-25T01:35:51.238Z,99670.41
2023-05-25T01:38:23.979Z,99670.72
2023-05-25T01:40:52.349Z,99679.31
2023-05-25T01:43:21.182Z,99678.78
2023-05-25T01:45:49.963Z,99671.59
2023-05-25T01:48:26.870Z,99680.22
2023-05-25T01:51:02.145Z,99679.69
2023-05-25T01:53:43.860Z,99681.91
2023-05-25T01:56:14.728Z,99679.13
2023-05-25T01:58:45.615Z,99676.94
2023-05-25T02:01:17.143Z,99665.84
2023-05-25T02:03:49.060Z,99669.75
2023-05-25T02:06:18.003Z,99674.47
2023-05-25T02:08:47.829Z,99673.13
2023-05-25T02:11:16.462Z,99670.66
2023-05-25T02:13:44.877Z,99679.25
2023-05-25T02:16:13.339Z,99674.84
2023-05-25T02:18:44.833Z,99679.88
2023-05-25T02:21:13.775Z,99680.97
2023-05-25T02:23:42.144Z,99681.28
2023-05-25T02:26:11.979Z,99686.00
2023-05-25T02:28:40.495Z,99683.53
2023-05-25T02:31:08.910Z,99696.56
2023-05-25T02:33:37.383Z,99692.13
2023-05-25T02:36:06.326Z,99693.53
2023-05-25T02:38:35.019Z,99693.00
2023-05-25T02:41:03.399Z,99694.16
2023-05-25T02:43:33.141Z,99699.97
2023-05-25T02:46:01.481Z,99705.00
2023-05-25T02:48:29.870Z,99709.72
2023-05-25T02:50:58.263Z,99705.56
2023-05-25T02:53:26.763Z,99708.34
2023-05-25T02:55:55.108Z,99710.59
2023-05-25T02:58:23.658Z,99710.06
2023-05-25T03:00:54.766Z,99719.00
2023-05-25T03:03:23.362Z,99725.66
2023-05-25T03:05:51.803Z,99727.06
2023-05-25T03:08:20.291Z,99726.22
2023-05-25T03:10:48.893Z,99724.88
2023-05-25T03:13:17.355Z,99723.22
2023-05-25T03:15:46.047Z,99727.09
2023-05-25T03:18:16.268Z,99715.19
2023-05-25T03:20:45.834Z,99723.50
2023-05-25T03:23:14.396Z,99722.41
2023-05-25T03:25:43.062Z,99715.19
2023-05-25T03:28:11.648Z,99716.03
2023-05-25T03:30:39.993Z,99719.63
2023-05-25T03:33:08.387Z,99722.09
2023-05-25T03:35:38.130Z,99721.81
2023-05-25T03:38:06.470Z,99723.44
2023-05-25T03:40:34.844Z,99725.13
2023-05-25T03:43:03.221Z,99728.72
2023-05-25T03:45:31.690Z,99732.31
2023-05-25T03:48:00.044Z,99733.13
2023-05-25T03:50:28.384Z,99734.81
2023-05-25T03:52:58.112Z,99732.56
2023-05-25T03:55:26.450Z,99737.53
2023-05-25T03:57:54.812Z,99741.94
2023-05-25T04:00:23.298Z,99739.69
2023-05-25T04:02:51.965Z,99741.88
2023-05-25T04:05:20.771Z,99744.34
2023-05-25T04:07:49.100Z,99732.69
2023-05-25T04:10:18.860Z,99729.31
2023-05-25T04:12:47.310Z,99735.09
2023-05-25T04:15:15.660Z,99728.97
2023-05-25T04:17:44.097Z,99733.63
2023-05-25T04:20:13.051Z,99726.34
2023-05-25T04:22:41.408Z,99737.09
2023-05-25T04:25:11.536Z,99734.28
2023-05-25T04:27:42.303Z,99734.22
2023-05-25T04:30:12.239Z,99744.13
2023-05-25T04:32:42.774Z,99738.19
2023-05-25T04:35:14.601Z,99736.72
2023-05-25T04:37:43.116Z,99742.72
2023-05-25T04:40:14.279Z,99737.63
2023-05-25T04:42:45.060Z,99743.63
2023-05-25T04:45:17.637Z,99746.56
2023-05-25T04:47:47.544Z,99739.50
2023-05-25T04:50:16.197Z,99744.38
2023-05-25T04:52:44.576Z,99749.25
2023-05-25T04:55:13.139Z,99743.88
2023-05-25T04:57:42.893Z,99755.88
2023-05-25T05:00:14.464Z,99749.94
2023-05-25T05:02:44.176Z,99752.16
2023-05-25T05:05:12.679Z,99749.72
2023-05-25T05:07:41.387Z,99754.53
2023-05-25T05:10:10.814Z,99743.59
2023-05-25T05:12:39.230Z,99748.50
2023-05-25T05:15:10.457Z,99756.50
2023-05-25T05:17:38.982Z,99751.16
2023-05-25T05:20:10.129Z,99748.50
2023-05-25T05:22:39.292Z,99754.09
2023-05-25T05:25:08.937Z,99748.25
2023-05-25T05:27:37.367Z,99756.56
2023-05-25T05:30:09.335Z,99744.19
2023-05-25T05:32:37.783Z,99755.44
2023-05-25T05:35:07.666Z,99760.34
2023-05-25T05:37:36.363Z,99754.56
2023-05-25T05:40:05.699Z,99760.44
2023-05-25T05:42:34.092Z,99763.25
2023-05-25T05:45:04.166Z,99764.88
2023-05-25T05:47:34.097Z,99763.41
2023-05-25T05:50:02.635Z,99757.56
2023-05-25T05:52:31.098Z,99756.28
2023-05-25T05:54:59.576Z,99769.78
2023-05-25T05:57:28.636Z,99777.41
2023-05-25T05:59:57.036Z,99772.22
2023-05-25T06:02:25.653Z,99773.22
2023-05-25T06:04:55.684Z,99772.91
2023-05-25T06:07:24.211Z,99777.03
2023-05-25T06:09:52.621Z,99777.72
2023-05-25T06:12:20.979Z,99781.41
2023-05-25T06:14:52.156Z,99776.72
2023-05-25T06:17:20.735Z,99779.41
2023-05-25T06:19:50.000Z,99781.25
2023-05-25T06:22:19.741Z,99779.94
2023-05-25T06:24:48.147Z,99783.94
2023-05-25T06:27:17.603Z,99785.94
2023-05-25T06:29:46.203Z,99781.38
2023-05-25T06:32:14.775Z,99778.44
2023-05-25T06:34:43.306Z,99773.22
2023-05-25T06:37:11.910Z,99770.81
2023-05-25T06:39:44.008Z,99776.59
2023-05-25T06:42:12.788Z,99780.69
2023-05-25T06:44:41.238Z,99780.03
2023-05-25T06:47:09.634Z,99773.81
2023-05-25T06:49:38.021Z,99782.84
2023-05-25T06:52:07.363Z,99773.53
2023-05-25T06:54:35.744Z,99773.59
2023-05-25T06:57:06.623Z,99773.63
2023-05-25T06:59:35.119Z,99775.44
2023-05-25T07:02:03.519Z,99773.50
2023-05-25T07:04:33.099Z,99776.63
2023-05-25T07:07:01.687Z,99773.53
2023-05-25T07:09:30.228Z,99771.75
2023-05-25T07:11:58.703Z,99772.06
2023-05-25T07:14:28.480Z,99771.44
2023-05-25T07:16:56.829Z,99768.97
2023-05-25T07:19:25.253Z,99769.66
2023-05-25T07:21:53.771Z,99769.78
2023-05-25T07:24:22.138Z,99763.69
2023-05-25T07:26:50.511Z,99775.22
2023-05-25T07:29:19.053Z,99763.88
2023-05-25T07:31:49.252Z,99766.00
2023-05-25T07:34:17.787Z,99765.50
2023-05-25T07:36:46.205Z,99769.09
2023-05-25T07:39:14.836Z,99770.72
2023-05-25T07:41:43.342Z,99767.59
2023-05-25T07:44:11.798Z,99777.47
2023-05-25T07:46:40.242Z,99782.25
2023-05-25T07:49:13.256Z,99784.56
2023-05-25T07:51:41.733Z,99779.78
2023-05-25T07:54:10.197Z,99779.28
2023-05-25T07:56:38.907Z,99775.59
2023-05-25T07:59:07.407Z,99772.31
2023-05-25T08:01:36.128Z,99769.00
2023-05-25T08:04:04.777Z,99775.22
2023-05-25T08:06:34.630Z,99778.00
2023-05-25T08:09:06.468Z,99783.88
2023-05-25T08:11:34.941Z,99786.19
2023-05-25T08:14:03.512Z,99784.81
2023-05-25T08:16:32.111Z,99781.66
2023-05-25T08:19:01.851Z,99776.72
2023-05-25T08:21:31.027Z,99780.19
2023-05-25T08:24:04.236Z,99785.28
2023-05-25T08:26:49.615Z,99777.69
2023-05-25T08:29:21.359Z,99780.03
2023-05-25T08:31:50.769Z,99772.56
2023-05-25T08:34:19.271Z,99776.00
2023-05-25T08:36:48.735Z,99768.72
2023-05-25T08:39:19.029Z,99770.50
2023-05-25T08:41:47.818Z,99772.13
2023-05-25T08:44:16.312Z,99769.66
2023-05-25T08:46:48.297Z,99776.59
2023-05-25T08:49:17.422Z,99776.72
2023-05-25T08:51:52.048Z,99777.06
2023-05-25T08:54:29.386Z,99775.09
2023-05-25T08:57:06.292Z,99776.38
2023-05-25T08:59:46.508Z,99778.00
2023-05-25T09:02:32.347Z,99778.50
2023-05-25T09:05:02.254Z,99783.56
2023-05-25T09:07:31.497Z,99778.78
2023-05-25T09:10:02.150Z,99780.50
2023-05-25T09:12:32.172Z,99777.69
2023-05-25T09:15:01.131Z,99780.28
2023-05-25T09:17:30.379Z,99785.34
2023-05-25T09:20:00.318Z,99796.03
2023-05-25T09:22:28.978Z,99790.06
2023-05-25T09:24:57.700Z,99784.59
2023-05-25T09:27:27.796Z,99782.63
2023-05-25T09:30:00.047Z,99784.94
2023-05-25T09:32:29.227Z,99786.91
2023-05-25T09:35:07.657Z,99776.69
2023-05-25T09:37:37.407Z,99782.09
2023-05-25T09:40:08.358Z,99791.34
2023-05-25T09:42:38.635Z,99789.84
2023-05-25T09:45:08.517Z,99777.94
2023-05-25T09:47:38.818Z,99777.94
2023-05-25T09:50:08.973Z,99780.19
2023-05-25T09:52:38.174Z,99782.44
2023-05-25T09:55:13.582Z,99790.28
2023-05-25T09:57:44.852Z,99778.19
2023-05-25T10:00:15.093Z,99774.94
2023-05-25T10:02:43.500Z,99768.22
2023-05-25T10:05:12.003Z,99769.69
2023-05-25T10:07:41.889Z,99771.00
2023-05-25T10:10:13.430Z,99762.47
2023-05-25T10:12:44.625Z,99768.66
2023-05-25T10:15:14.867Z,99767.50
2023-05-25T10:17:51.188Z,99780.06
2023-05-25T10:20:20.370Z,99760.94
2023-05-25T10:22:56.622Z,99765.66
2023-05-25T10:25:29.087Z,99760.41
2023-05-25T10:28:03.231Z,99764.38
2023-05-25T10:30:32.594Z,99760.63
2023-05-25T10:33:03.581Z,99776.53
2023-05-25T10:35:38.750Z,99761.56
2023-05-25T10:38:13.377Z,99752.28
2023-05-25T10:40:41.856Z,99745.13
2023-05-25T10:43:11.979Z,99743.94
2023-05-25T10:45:41.976Z,99740.53
2023-05-25T10:48:10.818Z,99739.19
2023-05-25T10:50:39.495Z,99731.31
2023-05-25T10:53:13.176Z,99726.88
2023-05-25T10:55:50.332Z,99736.59
2023-05-25T10:58:21.802Z,99738.03
2023-05-25T11:01:00.281Z,99722.06
2023-05-25T11:03:54.882Z,99721.53
2023-05-25T11:06:25.350Z,99717.31
2023-05-25T11:08:56.891Z,99708.22
2023-05-25T11:12:05.106Z,99710.34
2023-05-25T11:14:37.912Z,99703.00
2023-05-25T11:17:10.951Z,99704.16
2023-05-25T11:19:50.712Z,99703.31
2023-05-25T11:22:22.070Z,99698.03
2023-05-25T11:24:51.796Z,99693.84
2023-05-25T11:27:24.804Z,99685.47
2023-05-25T11:29:56.565Z,99681.91
2023-05-25T11:32:26.390Z,99674.59
2023-05-25T11:34:56.020Z,99677.44
2023-05-25T11:37:29.064Z,99674.53
2023-05-25T11:39:57.716Z,99672.34
2023-05-25T11:42:27.851Z,99670.94
2023-05-25T11:44:58.521Z,99662.53
2023-05-25T11:47:29.537Z,99671.13
2023-05-25T11:49:58.647Z,99661.84
2023-05-25T11:52:29.063Z,99660.34
2023-05-25T11:54:57.604Z,99662.84
2023-05-25T11:57:26.646Z,99653.09
2023-05-25T11:59:57.767Z,99656.88
2023-05-25T12:02:26.727Z,99650.50
2023-05-25T12:04:57.097Z,99642.78
2023-05-25T12:07:27.244Z,99650.22
2023-05-25T12:10:07.586Z,99643.00
2023-05-25T12:12:42.800Z,99637.28
2023-05-25T12:15:20.658Z,99633.19
2023-05-25T12:17:50.325Z,99637.97
2023-05-25T12:20:19.751Z,99631.97
2023-05-25T12:22:49.038Z,99628.69
2023-05-25T12:25:22.767Z,99628.91
2023-05-25T12:28:10.677Z,99629.94
2023-05-25T12:30:40.650Z,99640.56
2023-05-25T12:33:09.404Z,99638.19
2023-05-25T12:35:47.563Z,99634.13
2023-05-25T12:38:18.235Z,99630.75
2023-05-25T12:40:46.996Z,99625.59
2023-05-25T12:43:18.184Z,99624.63
2023-05-25T12:45:48.032Z,99636.16
2023-05-25T12:48:16.538Z,99627.06
2023-05-25T12:51:02.201Z,99625.00
2023-05-25T12:53:31.311Z,99626.50
2023-05-25T12:56:04.260Z,99621.66
2023-05-25T12:58:32.783Z,99625.56
2023-05-25T13:01:02.707Z,99628.22
2023-05-25T13:03:31.291Z,99627.19
2023-05-25T13:06:03.190Z,99620.53
2023-05-25T13:08:31.828Z,99613.59
2023-05-25T13:11:01.379Z,99616.84
2023-05-25T13:13:29.842Z,99603.09
2023-05-25T13:15:58.679Z,99614.38
2023-05-25T13:18:28.476Z,99597.56
2023-05-25T13:20:57.498Z,99597.53
2023-05-25T13:23:27.079Z,99599.13
2023-05-25T13:25:55.726Z,99599.59
2023-05-25T13:28:24.232Z,99592.66
2023-05-25T13:30:52.901Z,99594.78
2023-05-25T13:33:21.712Z,99595.06
2023-05-25T13:35:59.598Z,99596.25
2023-05-25T13:38:29.754Z,99592.53
2023-05-25T13:40:58.435Z,99583.34
2023-05-25T13:43:27.367Z,99585.34
2023-05-25T13:45:56.205Z,99587.41
2023-05-25T13:48:24.725Z,99585.91
2023-05-25T13:50:54.671Z,99592.00
2023-05-25T13:53:23.288Z,99590.25
2023-05-25T13:55:51.879Z,99589.47
2023-05-25T13:58:20.617Z,99589.47
2023-05-25T14:00:49.707Z,99591.50
2023-05-25T14:03:18.385Z,99581.88
2023-05-25T14:05:47.165Z,99595.66
2023-05-25T14:08:17.039Z,99593.25
2023-05-25T14:10:45.807Z,99588.56
2023-05-25T14:13:14.470Z,99584.19
2023-05-25T14:15:43.080Z,99579.38
2023-05-25T14:18:11.919Z,99587.59
2023-05-25T14:20:42.861Z,99589.97
2023-05-25T14:23:14.368Z,99584.59
2023-05-25T14:25:46.336Z,99579.91
2023-05-25T14:28:15.135Z,99591.44
2023-05-25T14:30:43.654Z,99588.53
2023-05-25T14:33:14.335Z,99586.16
2023-05-25T14:35:43.680Z,99581.09
2023-05-25T14:38:12.529Z,99578.41
2023-05-25T14:40:40.972Z,99579.22
2023-05-25T14:43:10.847Z,99575.94
2023-05-25T14:45:39.228Z,99568.53
2023-05-25T14:48:16.536Z,99581.06
2023-05-25T14:50:45.736Z,99573.88
2023-05-25T14:53:14.197Z,99574.69
2023-05-25T14:55:43.125Z,99575.50
2023-05-25T14:58:13.102Z,99570.66
2023-05-25T15:00:41.513Z,99572.25
2023-05-25T15:03:10.069Z,99567.22
2023-05-25T15:05:38.527Z,99561.00
2023-05-25T15:08:07.047Z,99553.75
2023-05-25T15:10:35.560Z,99558.22
2023-05-25T15:13:04.148Z,99553.00
2023-05-25T15:15:34.063Z,99552.47
2023-05-25T15:18:02.549Z,99545.47
2023-05-25T15:20:31.113Z,99546.53
2023-05-25T15:22:59.598Z,99546.91
2023-05-25T15:27:59.256Z,99550.28
2023-05-25T15:30:27.952Z,99546.84
2023-05-25T15:32:57.811Z,99546.09
2023-05-25T15:35:31.277Z,99541.50
2023-05-25T15:37:59.935Z,99551.16
2023-05-25T15:40:28.475Z,99549.06
2023-05-25T15:42:57.247Z,99547.22
2023-05-25T15:45:26.392Z,99549.56
2023-05-25T15:47:55.065Z,99546.47
2023-05-25T15:50:24.934Z,99546.16
2023-05-25T15:52:53.399Z,99553.31
2023-05-25T15:55:22.145Z,99555.75
2023-05-25T15:57:50.683Z,99551.44
2023-05-25T16:00:19.871Z,99560.00
2023-05-25T16:02:48.415Z,99557.84
2023-05-25T16:05:16.894Z,99556.03
2023-05-25T16:07:46.621Z,99556.63
2023-05-25T16:10:15.601Z,99556.34
2023-05-25T16:12:44.050Z,99551.56
2023-05-25T16:15:12.662Z,99550.91
2023-05-25T16:17:41.184Z,99557.06
2023-05-25T16:20:11.143Z,99551.13
2023-05-25T16:22:39.597Z,99549.63
2023-05-25T16:25:10.772Z,99550.94
2023-05-25T16:27:39.205Z,99547.03
2023-05-25T16:30:12.434Z,99541.84
2023-05-25T16:32:41.758Z,99545.59
2023-05-25T16:35:11.248Z,99545.72
2023-05-25T16:37:39.713Z,99537.34
2023-05-25T16:40:11.623Z,99543.84
2023-05-25T16:42:40.022Z,99546.88
2023-05-25T16:45:10.099Z,99540.59
2023-05-25T16:47:38.618Z,99539.63
2023-05-25T16:50:09.257Z,99540.66
2023-05-25T16:52:37.707Z,99546.97
2023-05-25T16:55:07.871Z,99540.38
2023-05-25T16:57:37.670Z,99537.78
2023-05-25T17:00:08.298Z,99531.53
2023-05-25T17:02:36.919Z,99536.22
2023-05-25T17:05:06.929Z,99536.88
2023-05-25T17:07:35.798Z,99543.19
2023-05-25T17:10:04.412Z,99538.97
2023-05-25T17:12:32.877Z,99547.72
2023-05-25T17:15:02.600Z,99543.94
2023-05-25T17:17:31.746Z,99550.22
2023-05-25T17:20:00.260Z,99536.78
2023-05-25T17:22:28.702Z,99543.88
2023-05-25T17:24:57.137Z,99547.34
2023-05-25T17:27:25.580Z,99543.53
2023-05-25T17:29:53.985Z,99552.66
2023-05-25T17:32:23.802Z,99551.25
2023-05-25T17:34:52.204Z,99560.38
2023-05-25T17:37:21.222Z,99557.00
2023-05-25T17:39:49.811Z,99549.53
2023-05-25T17:42:18.310Z,99550.53
2023-05-25T17:44:46.728Z,99556.81
2023-05-25T17:47:15.291Z,99554.63
2023-05-25T17:49:45.106Z,99556.44
2023-05-25T17:52:13.608Z,99551.88
2023-05-25T17:54:42.051Z,99556.47
2023-05-25T17:57:11.086Z,99552.28
2023-05-25T17:59:39.561Z,99561.34
2023-05-25T18:02:08.285Z,99561.59
2023-05-25T18:04:36.876Z,99552.13
2023-05-25T18:07:07.077Z,99563.19
2023-05-25T18:09:35.532Z,99569.88
2023-05-25T18:12:03.935Z,99562.06
2023-05-25T18:14:35.422Z,99563.50
2023-05-25T18:17:04.069Z,99569.38
2023-05-25T18:19:32.536Z,99560.69
2023-05-25T18:22:01.041Z,99568.56
2023-05-25T18:24:30.924Z,99568.34
2023-05-25T18:27:03.702Z,99568.13
2023-05-25T18:29:32.241Z,99571.53
2023-05-25T18:32:00.994Z,99572.94
2023-05-25T18:34:30.332Z,99570.75
2023-05-25T18:36:58.811Z,99575.78
2023-05-25T18:39:27.376Z,99570.75
2023-05-25T18:41:57.219Z,99578.94
2023-05-25T18:44:26.704Z,99589.56
2023-05-25T18:46:56.185Z,99578.56
2023-05-25T18:49:24.677Z,99582.44
2023-05-25T18:51:53.124Z,99584.66
2023-05-25T18:54:21.564Z,99599.28
2023-05-25T18:56:50.043Z,99584.63
2023-05-25T18:59:19.911Z,99588.84
2023-05-25T19:01:48.447Z,99593.53
2023-05-25T19:04:17.057Z,99600.19
2023-05-25T19:06:45.667Z,99591.97
2023-05-25T19:09:14.088Z,99592.19
2023-05-25T19:11:42.580Z,99595.59
2023-05-25T19:14:11.034Z,99606.56
2023-05-25T19:16:40.889Z,99609.06
2023-05-25T19:19:09.543Z,99611.25
2023-05-25T19:21:37.956Z,99609.84
2023-05-25T19:24:07.277Z,99611.22
2023-05-25T19:26:36.812Z,99611.75
2023-05-25T19:29:05.344Z,99614.81
2023-05-25T19:31:33.941Z,99617.81
2023-05-25T19:34:03.855Z,99618.38
2023-05-25T19:36:32.816Z,99623.34
2023-05-25T19:39:01.278Z,99629.16
2023-05-25T19:41:29.751Z,99626.09
2023-05-25T19:43:58.201Z,99634.66
2023-05-25T19:46:26.804Z,99629.28
2023-05-25T19:48:57.190Z,99636.69
2023-05-25T19:51:27.041Z,99628.84
2023-05-25T19:53:56.167Z,99636.28
2023-05-25T19:56:24.752Z,99623.66
2023-05-25T19:58:53.163Z,99635.03
2023-05-25T20:01:21.690Z,99631.28
2023-05-25T20:03:50.187Z,99633.09
2023-05-25T20:06:18.815Z,99638.09
2023-05-25T20:08:48.622Z,99635.13
2023-05-25T20:11:17.176Z,99645.38
2023-05-25T20:13:46.446Z,99650.31
2023-05-25T20:16:14.921Z,99656.63
2023-05-25T20:18:44.678Z,99657.28
2023-05-25T20:21:13.181Z,99657.16
2023-05-25T20:23:41.671Z,99653.31
2023-05-25T20:26:11.493Z,99664.38
2023-05-25T20:28:39.899Z,99658.31
2023-05-25T20:31:09.240Z,99664.91
2023-05-25T20:33:37.704Z,99660.31
2023-05-25T20:36:06.643Z,99665.44
2023-05-25T20:38:35.289Z,99663.28
2023-05-25T20:41:03.771Z,99670.72
2023-05-25T20:43:33.553Z,99673.34
2023-05-25T20:46:02.207Z,99680.75
2023-05-25T20:48:30.717Z,99682.25
2023-05-25T20:50:59.189Z,99682.91
2023-05-25T20:53:27.714Z,99691.97
2023-05-25T20:55:58.008Z,99696.56
2023-05-25T20:58:26.406Z,99701.69
2023-05-25T21:00:56.200Z,99702.69
2023-05-25T21:03:24.745Z,99713.03
2023-05-25T21:05:53.233Z,99710.09
2023-05-25T21:08:21.758Z,99709.91
2023-05-25T21:10:50.262Z,99717.31
2023-05-25T21:13:18.728Z,99720.81
2023-05-25T21:15:47.473Z,99717.78
2023-05-25T21:18:17.479Z,99713.19
2023-05-25T21:20:46.190Z,99726.19
2023-05-25T21:23:14.620Z,99723.56
2023-05-25T21:25:43.189Z,99716.16
2023-05-25T21:28:11.808Z,99723.56
2023-05-25T21:30:40.362Z,99722.88
2023-05-25T21:33:08.774Z,99733.38
2023-05-25T21:35:38.701Z,99724.69
2023-05-25T21:38:07.127Z,99731.56
2023-05-25T21:40:35.815Z,99730.09
2023-05-25T21:43:04.579Z,99728.59
2023-05-25T21:45:33.166Z,99731.56
2023-05-25T21:48:01.775Z,99736.47
2023-05-25T21:50:30.452Z,99734.31
2023-05-25T21:53:00.368Z,99737.25
2023-05-25T21:55:29.121Z,99729.81
2023-05-25T21:57:57.554Z,99727.69
2023-05-25T22:00:26.263Z,99736.69
2023-05-25T22:02:54.902Z,99737.31
2023-05-25T22:05:23.672Z,99739.97
2023-05-25T22:07:54.106Z,99741.41
2023-05-25T22:10:25.289Z,99740.44
2023-05-25T22:12:53.899Z,99741.06
2023-05-25T22:15:22.682Z,99744.50
2023-05-25T22:17:51.592Z,99737.91
2023-05-25T22:20:20.919Z,99749.41
2023-05-25T22:22:49.546Z,99752.81
2023-05-25T22:25:18.214Z,99751.84
2023-05-25T22:27:48.213Z,99750.50
2023-05-25T22:30:17.433Z,99755.09
2023-05-25T22:32:46.017Z,99751.78
2023-05-25T22:35:14.418Z,99756.34
2023-05-25T22:37:42.841Z,99755.84
2023-05-25T22:40:12.978Z,99755.69
2023-05-25T22:42:41.482Z,99754.69
2023-05-25T22:45:12.604Z,99756.44
2023-05-25T22:47:41.016Z,99763.47
2023-05-25T22:50:11.270Z,99760.47
2023-05-25T22:52:40.547Z,99763.38
2023-05-25T22:55:10.908Z,99767.13
2023-05-25T22:57:39.632Z,99768.09
2023-05-25T23:00:11.220Z,99765.41
2023-05-25T23:02:39.629Z,99764.41
2023-05-25T23:05:09.872Z,99766.19
2023-05-25T23:07:38.246Z,99770.72
2023-05-25T23:10:07.740Z,99768.09
2023-05-25T23:12:36.368Z,99777.41
2023-05-25T23:15:07.037Z,99768.31
2023-05-25T23:17:36.898Z,99766.47
2023-05-25T23:20:07.889Z,99763.81
2023-05-25T23:22:36.267Z,99761.66
2023-05-25T23:25:04.858Z,99757.84
2023-05-25T23:27:33.442Z,99756.84
2023-05-25T23:30:02.159Z,99762.22
2023-05-25T23:32:30.689Z,99762.00
2023-05-25T23:35:00.816Z,99764.88
2023-05-25T23:37:29.536Z,99763.53
2023-05-25T23:39:57.876Z,99765.31
2023-05-25T23:42:28.893Z,99764.59
2023-05-25T23:44:57.265Z,99760.50
2023-05-25T23:47:25.604Z,99758.63
2023-05-25T23:49:53.998Z,99767.59
2023-05-25T23:52:23.744Z,99764.94
2023-05-25T23:54:52.087Z,99761.63
2023-05-25T23:57:20.410Z,99769.75
2023-05-25T23:59:48.854Z,99766.78
